createdAt,value
2023-04-27T00:01:14.163Z,3.83
2023-04-27T00:03:46.069Z,4.00
2023-04-27T00:06:16.801Z,3.90
2023-04-27T00:08:47.295Z,3.70
2023-04-27T00:11:17.809Z,3.50
2023-04-27T00:13:50.926Z,4.85
2023-04-27T00:16:21.737Z,3.88
2023-04-27T00:18:52.488Z,4.00
2023-04-27T00:21:23.538Z,3.67
2023-04-27T00:26:24.765Z,4.22
2023-04-27T00:28:59.274Z,3.65
2023-04-27T00:31:29.756Z,4.13
2023-04-27T00:34:00.298Z,3.42
2023-04-27T00:36:30.813Z,3.45
2023-04-27T00:39:01.394Z,3.45
2023-04-27T00:41:32.927Z,4.50
2023-04-27T00:44:06.152Z,3.97
2023-04-27T00:46:38.624Z,3.60
2023-04-27T00:49:09.209Z,3.55
2023-04-27T00:51:39.744Z,3.38
2023-04-27T00:54:11.200Z,3.95
2023-04-27T00:56:41.648Z,4.05
2023-04-27T00:59:14.988Z,4.28
2023-04-27T01:01:45.670Z,3.95
2023-04-27T01:04:17.217Z,3.70
2023-04-27T01:06:48.166Z,3.70
2023-04-27T01:09:20.137Z,4.10
2023-04-27T01:11:53.408Z,4.20
2023-04-27T01:14:27.601Z,5.45
2023-04-27T01:16:58.657Z,3.72
2023-04-27T01:19:29.307Z,4.70
2023-04-27T01:21:59.792Z,4.38
2023-04-27T01:24:32.914Z,3.78
2023-04-27T01:27:04.482Z,4.28
2023-04-27T01:29:35.013Z,3.58
2023-04-27T01:32:06.456Z,6.05
2023-04-27T01:34:37.124Z,4.28
2023-04-27T01:37:08.142Z,3.72
2023-04-27T01:39:42.234Z,4.20
2023-04-27T01:42:12.748Z,3.40
2023-04-27T01:44:43.800Z,4.00
2023-04-27T01:47:14.376Z,3.83
2023-04-27T01:49:44.816Z,3.38
2023-04-27T01:52:15.616Z,3.57
2023-04-27T01:54:48.756Z,3.53
2023-04-27T01:57:19.853Z,3.57
2023-04-27T01:59:50.399Z,3.38
2023-04-27T02:02:20.988Z,4.15
2023-04-27T02:04:51.716Z,4.88
2023-04-27T02:07:22.952Z,3.60
2023-04-27T02:09:56.100Z,3.35
2023-04-27T02:12:26.696Z,3.47
2023-04-27T02:14:57.407Z,3.15
2023-04-27T02:17:29.450Z,3.75
2023-04-27T02:19:59.941Z,3.90
2023-04-27T02:22:30.932Z,3.95
2023-04-27T02:25:04.107Z,3.83
2023-04-27T02:27:34.861Z,3.50
2023-04-27T02:30:10.418Z,3.60
2023-04-27T02:32:41.650Z,4.10
2023-04-27T02:35:13.211Z,3.72
2023-04-27T02:37:44.115Z,3.67
2023-04-27T02:40:17.569Z,3.60
2023-04-27T02:42:48.129Z,3.67
2023-04-27T02:45:18.945Z,3.50
2023-04-27T02:47:51.131Z,3.80
2023-04-27T02:50:21.881Z,3.50
2023-04-27T02:52:52.379Z,3.92
2023-04-27T02:55:25.844Z,4.00
2023-04-27T02:57:56.372Z,3.97
2023-04-27T03:00:27.197Z,4.35
2023-04-27T03:02:57.990Z,4.10
2023-04-27T03:05:32.047Z,3.83
2023-04-27T03:08:02.756Z,5.00
2023-04-27T03:10:36.317Z,4.03
2023-04-27T03:13:06.739Z,3.60
2023-04-27T03:15:38.083Z,3.97
2023-04-27T03:18:09.414Z,3.90
2023-04-27T03:20:39.920Z,3.43
2023-04-27T03:23:10.391Z,4.27
2023-04-27T03:25:43.655Z,3.55
2023-04-27T03:28:14.143Z,3.97
2023-04-27T03:30:44.704Z,3.70
2023-04-27T03:33:15.604Z,3.90
2023-04-27T03:35:46.046Z,3.65
2023-04-27T03:38:18.079Z,3.70
2023-04-27T03:40:51.538Z,3.95
2023-04-27T03:43:22.967Z,3.87
2023-04-27T03:45:53.557Z,3.83
2023-04-27T03:48:24.771Z,3.80
2023-04-27T03:50:57.346Z,3.63
2023-04-27T03:53:27.888Z,3.67
2023-04-27T03:56:01.041Z,3.72
2023-04-27T03:58:31.868Z,3.53
2023-04-27T04:01:22.448Z,4.05
2023-04-27T04:03:53.876Z,3.70
2023-04-27T04:06:24.714Z,3.70
2023-04-27T04:08:55.692Z,3.63
2023-04-27T04:11:29.363Z,4.03
2023-04-27T04:14:02.245Z,3.90
2023-04-27T04:16:33.426Z,4.13
2023-04-27T04:19:03.947Z,4.05
2023-04-27T04:21:34.838Z,4.40
2023-04-27T04:24:06.204Z,4.33
2023-04-27T04:26:40.257Z,4.20
2023-04-27T04:29:11.276Z,3.83
2023-04-27T04:34:14.699Z,4.22
2023-04-27T04:36:45.641Z,4.37
2023-04-27T04:39:16.668Z,4.68
2023-04-27T04:41:50.258Z,4.13
2023-04-27T04:44:21.262Z,3.83
2023-04-27T04:46:52.123Z,3.55
2023-04-27T04:49:22.685Z,3.58
2023-04-27T04:51:53.689Z,3.60
2023-04-27T04:54:24.150Z,3.67
2023-04-27T04:56:59.140Z,4.25
2023-04-27T04:59:31.979Z,4.03
2023-04-27T05:02:02.546Z,3.87
2023-04-27T05:04:33.251Z,4.63
2023-04-27T05:07:04.973Z,4.43
2023-04-27T05:09:35.551Z,4.22
2023-04-27T05:12:09.619Z,4.60
2023-04-27T05:14:40.095Z,3.97
2023-04-27T05:17:10.789Z,4.25
2023-04-27T05:19:41.256Z,4.72
2023-04-27T05:22:11.720Z,4.22
2023-04-27T05:24:42.259Z,4.40
2023-04-27T05:27:17.299Z,4.40
2023-04-27T05:29:47.709Z,5.32
2023-04-27T05:32:18.226Z,4.13
2023-04-27T05:34:49.562Z,4.40
2023-04-27T05:37:20.232Z,5.55
2023-04-27T05:39:50.948Z,4.40
2023-04-27T05:42:24.028Z,4.65
2023-04-27T05:44:54.533Z,4.38
2023-04-27T05:47:25.580Z,5.15
2023-04-27T05:49:56.793Z,4.57
2023-04-27T05:55:02.255Z,4.55
2023-04-27T05:57:37.024Z,4.60
2023-04-27T06:00:12.989Z,4.40
2023-04-27T06:02:43.528Z,4.03
2023-04-27T06:05:14.267Z,4.80
2023-04-27T06:07:44.865Z,3.95
2023-04-27T06:10:16.641Z,4.75
2023-04-27T06:12:49.741Z,4.57
2023-04-27T06:15:20.217Z,4.80
2023-04-27T06:17:50.920Z,5.07
2023-04-27T06:20:21.760Z,4.68
2023-04-27T06:22:52.425Z,5.25
2023-04-27T06:25:24.461Z,4.72
2023-04-27T06:28:00.735Z,4.47
2023-04-27T06:30:31.161Z,5.40
2023-04-27T06:33:01.756Z,4.78
2023-04-27T06:35:32.346Z,5.00
2023-04-27T06:38:03.922Z,4.65
2023-04-27T06:40:35.722Z,4.10
2023-04-27T06:43:08.930Z,4.40
2023-04-27T06:45:39.339Z,4.28
2023-04-27T06:48:10.052Z,3.92
2023-04-27T06:50:40.852Z,4.05
2023-04-27T06:53:11.872Z,3.90
2023-04-27T06:55:45.597Z,4.05
2023-04-27T06:58:20.080Z,5.03
2023-04-27T07:00:51.057Z,4.10
2023-04-27T07:05:51.995Z,4.53
2023-04-27T07:08:22.450Z,4.10
2023-04-27T07:10:53.502Z,3.67
2023-04-27T07:16:01.195Z,3.72
2023-04-27T07:18:31.701Z,3.75
2023-04-27T07:21:02.420Z,4.00
2023-04-27T07:23:32.929Z,3.80
2023-04-27T07:26:03.513Z,3.95
2023-04-27T07:28:36.891Z,4.13
2023-04-27T07:31:08.533Z,3.90
2023-04-27T07:33:39.017Z,3.88
2023-04-27T07:36:10.105Z,3.72
2023-04-27T07:38:40.874Z,3.70
2023-04-27T07:41:11.331Z,4.03
2023-04-27T07:43:44.452Z,4.22
2023-04-27T07:46:15.173Z,4.00
2023-04-27T07:48:45.857Z,3.63
2023-04-27T07:51:17.730Z,3.83
2023-04-27T07:53:48.210Z,3.83
2023-04-27T07:56:18.652Z,3.92
2023-04-27T07:58:51.973Z,3.65
2023-04-27T08:01:22.507Z,3.95
2023-04-27T08:03:53.208Z,3.83
2023-04-27T08:11:26.770Z,3.50
2023-04-27T08:13:59.890Z,4.00
2023-04-27T08:16:31.547Z,3.70
2023-04-27T08:19:02.081Z,4.07
2023-04-27T08:21:33.054Z,3.53
2023-04-27T08:24:03.492Z,3.83
2023-04-27T08:26:34.012Z,3.42
2023-04-27T08:29:19.311Z,4.18
2023-04-27T08:31:57.728Z,4.60
2023-04-27T08:34:28.632Z,3.90
2023-04-27T08:39:32.910Z,4.05
2023-04-27T08:42:13.632Z,3.45
2023-04-27T08:47:23.479Z,3.17
2023-04-27T08:50:01.978Z,3.10
2023-04-27T08:52:32.539Z,4.25
2023-04-27T08:55:03.683Z,4.07
2023-04-27T08:57:34.266Z,4.50
2023-04-27T09:00:13.472Z,3.83
2023-04-27T09:02:50.768Z,4.63
2023-04-27T09:05:22.161Z,3.90
2023-04-27T09:08:05.656Z,4.20
2023-04-27T09:10:48.328Z,4.30
2023-04-27T09:13:20.180Z,3.72
2023-04-27T09:15:54.944Z,4.20
2023-04-27T09:18:30.201Z,3.90
2023-04-27T09:21:01.071Z,4.40
2023-04-27T09:23:33.562Z,3.83
2023-04-27T09:26:08.242Z,4.13
2023-04-27T09:28:42.950Z,4.10
2023-04-27T09:31:16.251Z,4.00
2023-04-27T09:33:48.835Z,3.80
2023-04-27T09:36:24.463Z,4.05
2023-04-27T09:38:56.281Z,4.68
2023-04-27T09:41:29.080Z,4.85
2023-04-27T09:44:01.908Z,4.88
2023-04-27T09:46:40.046Z,4.70
2023-04-27T09:49:11.882Z,5.32
2023-04-27T09:51:45.017Z,4.90
2023-04-27T09:54:17.924Z,5.50
2023-04-27T09:57:03.160Z,4.55
2023-04-27T09:59:58.684Z,4.57
2023-04-27T10:02:52.210Z,4.68
2023-04-27T10:05:49.515Z,4.78
2023-04-27T10:08:20.665Z,4.72
2023-04-27T10:10:55.524Z,5.03
2023-04-27T10:13:29.343Z,4.28
2023-04-27T10:16:00.067Z,5.22
2023-04-27T10:18:34.518Z,5.85
2023-04-27T10:21:13.923Z,5.35
2023-04-27T10:23:52.044Z,4.97
2023-04-27T10:26:28.028Z,4.85
2023-04-27T10:29:08.818Z,4.30
2023-04-27T10:31:47.094Z,4.60
2023-04-27T10:34:22.265Z,4.97
2023-04-27T10:36:52.950Z,4.70
2023-04-27T10:39:39.789Z,4.80
2023-04-27T10:42:15.480Z,5.05
2023-04-27T10:44:46.430Z,4.47
2023-04-27T10:47:20.185Z,4.82
2023-04-27T10:49:56.308Z,4.38
2023-04-27T10:52:26.814Z,4.38
2023-04-27T10:57:36.729Z,4.40
2023-04-27T11:00:16.359Z,4.60
2023-04-27T11:02:47.286Z,4.53
2023-04-27T11:05:30.650Z,4.45
2023-04-27T11:08:14.842Z,4.40
2023-04-27T11:10:50.455Z,5.00
2023-04-27T11:13:23.510Z,4.85
2023-04-27T11:15:56.093Z,4.90
2023-04-27T11:18:29.706Z,4.43
2023-04-27T11:21:14.224Z,4.80
2023-04-27T11:23:45.730Z,4.63
2023-04-27T11:26:18.514Z,4.82
2023-04-27T11:29:05.655Z,4.90
2023-04-27T11:31:49.141Z,4.95
2023-04-27T11:34:23.208Z,4.50
2023-04-27T11:37:18.325Z,5.38
2023-04-27T11:39:50.073Z,4.93
2023-04-27T11:42:25.346Z,5.05
2023-04-27T11:44:58.211Z,4.65
2023-04-27T11:47:32.913Z,4.82
2023-04-27T11:50:05.288Z,4.50
2023-04-27T11:52:43.011Z,4.88
2023-04-27T11:55:16.454Z,5.15
2023-04-27T11:57:48.299Z,4.70
2023-04-27T12:00:23.215Z,5.03
2023-04-27T12:02:54.283Z,4.15
2023-04-27T12:05:25.432Z,4.13
2023-04-27T12:08:01.254Z,4.65
2023-04-27T12:10:31.976Z,4.95
2023-04-27T12:13:07.882Z,4.97
2023-04-27T12:15:39.218Z,4.60
2023-04-27T12:18:12.758Z,4.40
2023-04-27T12:20:45.037Z,4.57
2023-04-27T12:23:20.876Z,4.95
2023-04-27T12:25:51.529Z,4.28
2023-04-27T12:28:22.021Z,5.00
2023-04-27T12:33:23.315Z,5.15
2023-04-27T12:35:53.899Z,4.97
2023-04-27T12:38:27.256Z,5.22
2023-04-27T12:41:03.153Z,5.03
2023-04-27T12:43:35.472Z,4.90
2023-04-27T12:46:07.847Z,4.88
2023-04-27T12:48:38.790Z,4.75
2023-04-27T12:51:13.333Z,5.03
2023-04-27T12:53:46.716Z,4.38
2023-04-27T12:56:17.452Z,4.45
2023-04-27T12:58:48.519Z,4.68
2023-04-27T13:01:19.876Z,4.72
2023-04-27T13:03:52.116Z,4.93
2023-04-27T13:06:23.145Z,5.10
2023-04-27T13:08:56.678Z,4.53
2023-04-27T13:11:27.921Z,4.57
2023-04-27T13:13:59.195Z,4.90
2023-04-27T13:16:29.842Z,4.95
2023-04-27T13:19:00.690Z,4.75
2023-04-27T13:21:31.385Z,4.78
2023-04-27T13:24:04.548Z,5.60
2023-04-27T13:26:37.717Z,5.00
2023-04-27T13:29:08.304Z,4.78
2023-04-27T13:31:39.133Z,4.90
2023-04-27T13:34:09.708Z,5.03
2023-04-27T13:36:40.260Z,4.70
2023-04-27T13:39:13.484Z,4.97
2023-04-27T13:41:43.928Z,4.93
2023-04-27T13:44:15.054Z,4.85
2023-04-27T13:46:46.035Z,4.72
2023-04-27T13:49:19.298Z,4.50
2023-04-27T13:51:49.986Z,4.80
2023-04-27T13:54:24.120Z,4.70
2023-04-27T13:56:54.778Z,4.40
2023-04-27T13:59:25.372Z,4.75
2023-04-27T14:01:56.892Z,4.90
2023-04-27T14:04:27.648Z,4.90
2023-04-27T14:06:58.209Z,5.15
2023-04-27T14:09:31.341Z,5.28
2023-04-27T14:12:02.218Z,4.60
2023-04-27T14:14:32.757Z,4.78
2023-04-27T14:17:03.365Z,4.25
2023-04-27T14:19:36.568Z,4.30
2023-04-27T14:22:08.432Z,4.50
2023-04-27T14:24:41.518Z,5.43
2023-04-27T14:27:12.216Z,4.50
2023-04-27T14:29:42.808Z,4.97
2023-04-27T14:32:13.695Z,5.20
2023-04-27T14:34:44.395Z,4.80
2023-04-27T14:37:14.844Z,4.97
2023-04-27T14:39:49.141Z,4.55
2023-04-27T14:42:19.687Z,4.57
2023-04-27T14:44:50.236Z,4.70
2023-04-27T14:47:21.105Z,4.90
2023-04-27T14:49:51.754Z,4.63
2023-04-27T14:52:22.274Z,16.42
2023-04-27T14:54:55.792Z,5.28
2023-04-27T14:57:26.748Z,4.90
2023-04-27T14:59:57.298Z,5.05
2023-04-27T15:02:27.906Z,5.47
2023-04-27T15:04:58.467Z,4.70
2023-04-27T15:07:29.141Z,5.10
2023-04-27T15:10:02.408Z,5.53
2023-04-27T15:12:32.855Z,5.25
2023-04-27T15:15:03.920Z,4.95
2023-04-27T15:17:34.547Z,5.00
2023-04-27T15:20:06.056Z,5.00
2023-04-27T15:22:36.808Z,5.05
2023-04-27T15:25:11.475Z,5.40
2023-04-27T15:27:45.044Z,5.18
2023-04-27T15:30:17.633Z,5.93
2023-04-27T15:32:48.377Z,5.43
2023-04-27T15:35:19.248Z,4.97
2023-04-27T15:37:49.760Z,5.45
2023-04-27T15:42:53.634Z,5.00
2023-04-27T15:47:54.800Z,5.43
2023-04-27T15:50:25.543Z,5.28
2023-04-27T15:52:56.432Z,5.50
2023-04-27T15:55:29.492Z,5.65
2023-04-27T15:58:00.091Z,5.95
2023-04-27T16:03:01.787Z,5.75
2023-04-27T16:05:33.002Z,5.90
2023-04-27T16:08:03.476Z,6.10
2023-04-27T16:10:36.658Z,5.60
2023-04-27T16:13:07.180Z,5.90
2023-04-27T16:15:37.730Z,5.90
2023-04-27T16:18:08.448Z,6.20
2023-04-27T16:23:09.102Z,5.80
2023-04-27T16:25:42.214Z,6.38
2023-04-27T16:28:12.820Z,36.58
2023-04-27T16:30:43.371Z,11.65
2023-04-27T16:33:14.041Z,12.45
2023-04-27T16:35:47.627Z,7.50
2023-04-27T16:38:20.680Z,6.88
2023-04-27T16:40:56.179Z,7.15
2023-04-27T16:43:26.972Z,6.18
2023-04-27T16:45:57.581Z,6.60
2023-04-27T16:48:28.588Z,6.30
2023-04-27T16:53:29.674Z,6.43
2023-04-27T16:56:04.134Z,6.10
2023-04-27T16:58:36.440Z,6.22
2023-04-27T17:01:07.464Z,6.10
2023-04-27T17:03:38.378Z,6.45
2023-04-27T17:08:39.616Z,6.67
2023-04-27T17:11:15.030Z,6.28
2023-04-27T17:13:45.546Z,6.80
2023-04-27T17:16:17.346Z,8.40
2023-04-27T17:18:48.830Z,14.38
2023-04-27T17:21:21.763Z,42.95
2023-04-27T17:23:53.417Z,22.17
2023-04-27T17:26:26.592Z,7.82
2023-04-27T17:29:00.195Z,6.72
2023-04-27T17:31:30.824Z,5.90
2023-04-27T17:34:01.391Z,6.07
2023-04-27T17:36:32.036Z,6.80
2023-04-27T17:39:03.429Z,6.50
2023-04-27T17:41:37.189Z,5.97
2023-04-27T17:44:08.304Z,5.95
2023-04-27T17:49:10.773Z,6.72
2023-04-27T17:51:41.680Z,5.95
2023-04-27T17:54:12.544Z,6.72
2023-04-27T17:56:45.756Z,7.10
2023-04-27T17:59:16.770Z,6.10
2023-04-27T18:01:47.925Z,6.53
2023-04-27T18:04:18.752Z,5.95
2023-04-27T18:06:49.378Z,6.28
2023-04-27T18:09:19.914Z,5.63
2023-04-27T18:11:53.183Z,6.50
2023-04-27T18:14:23.812Z,7.15
2023-04-27T18:16:55.116Z,6.22
2023-04-27T18:19:26.116Z,7.53
2023-04-27T18:24:27.655Z,6.82
2023-04-27T18:27:01.008Z,7.60
2023-04-27T18:29:31.859Z,7.18
2023-04-27T18:32:05.879Z,7.57
2023-04-27T18:34:36.976Z,8.93
2023-04-27T18:39:37.575Z,8.20
2023-04-27T18:42:10.864Z,8.43
2023-04-27T18:44:41.454Z,8.02
2023-04-27T18:47:13.966Z,7.82
2023-04-27T18:49:44.444Z,8.30
2023-04-27T18:52:15.032Z,8.10
2023-04-27T18:54:45.532Z,7.43
2023-04-27T18:57:18.629Z,8.93
2023-04-27T18:59:52.112Z,8.23
2023-04-27T19:02:23.021Z,8.55
2023-04-27T19:07:43.138Z,8.85
2023-04-27T19:10:14.985Z,17.85
2023-04-27T19:12:48.099Z,26.40
2023-04-27T19:15:19.000Z,9.05
2023-04-27T19:17:58.582Z,7.63
2023-04-27T19:20:37.372Z,7.72
2023-04-27T19:23:09.708Z,8.05
2023-04-27T19:25:40.660Z,7.80
2023-04-27T19:28:13.889Z,7.88
2023-04-27T19:30:44.311Z,8.15
2023-04-27T19:33:14.986Z,8.98
2023-04-27T19:35:45.806Z,9.57
2023-04-27T19:38:16.409Z,8.80
2023-04-27T19:40:47.180Z,8.32
2023-04-27T19:43:21.167Z,8.55
2023-04-27T19:45:51.836Z,8.55
2023-04-27T19:48:22.351Z,8.32
2023-04-27T19:50:52.852Z,7.60
2023-04-27T19:53:23.582Z,9.10
2023-04-27T19:55:54.948Z,8.40
2023-04-27T19:58:28.148Z,9.07
2023-04-27T20:00:58.578Z,8.55
2023-04-27T20:03:29.229Z,9.23
2023-04-27T20:05:59.984Z,8.43
2023-04-27T20:11:01.501Z,8.15
2023-04-27T20:13:34.888Z,9.70
2023-04-27T20:16:05.544Z,8.90
2023-04-27T20:18:36.635Z,9.27
2023-04-27T20:23:38.063Z,9.25
2023-04-27T20:26:08.548Z,9.57
2023-04-27T20:28:41.832Z,11.25
2023-04-27T20:31:12.820Z,10.75
2023-04-27T20:36:17.833Z,9.50
2023-04-27T20:38:49.599Z,9.52
2023-04-27T20:41:21.494Z,9.90
2023-04-27T20:43:55.589Z,9.75
2023-04-27T20:46:26.513Z,9.80
2023-04-27T20:48:57.514Z,10.15
2023-04-27T20:51:28.100Z,10.50
2023-04-27T20:53:59.301Z,9.48
2023-04-27T20:56:30.853Z,10.10
2023-04-27T20:59:04.499Z,10.05
2023-04-27T21:01:35.901Z,9.20
2023-04-27T21:04:06.655Z,9.70
2023-04-27T21:06:37.337Z,9.52
2023-04-27T21:09:07.991Z,9.85
2023-04-27T21:11:38.674Z,9.73
2023-04-27T21:14:11.751Z,9.90
2023-04-27T21:16:42.283Z,9.73
2023-04-27T21:19:14.853Z,10.38
2023-04-27T21:21:47.453Z,10.00
2023-04-27T21:24:19.661Z,10.75
2023-04-27T21:26:50.558Z,10.70
2023-04-27T21:29:23.819Z,10.05
2023-04-27T21:31:54.326Z,9.57
2023-04-27T21:34:24.850Z,9.45
2023-04-27T21:36:55.377Z,9.45
2023-04-27T21:39:26.005Z,9.82
2023-04-27T21:41:56.637Z,9.98
2023-04-27T21:44:32.896Z,10.15
2023-04-27T21:47:03.298Z,9.55
2023-04-27T21:49:34.007Z,10.00
2023-04-27T21:52:04.542Z,10.25
2023-04-27T21:54:35.816Z,10.18
2023-04-27T21:57:06.961Z,10.88
2023-04-27T22:02:10.364Z,9.40
2023-04-27T22:04:41.470Z,9.43
2023-04-27T22:09:42.645Z,9.97
2023-04-27T22:12:13.221Z,9.45
2023-04-27T22:14:47.143Z,9.80
2023-04-27T22:17:17.621Z,9.40
2023-04-27T22:19:48.417Z,9.25
2023-04-27T22:22:18.904Z,9.55
2023-04-27T22:24:49.462Z,9.98
2023-04-27T22:27:20.063Z,9.50
2023-04-27T22:29:53.263Z,9.50
2023-04-27T22:32:23.715Z,8.90
2023-04-27T22:34:54.437Z,9.82
2023-04-27T22:37:25.066Z,8.00
2023-04-27T22:39:56.226Z,9.45
2023-04-27T22:44:59.490Z,9.73
2023-04-27T22:47:30.374Z,8.68
2023-04-27T22:50:02.113Z,8.73
2023-04-27T22:52:33.997Z,9.10
2023-04-27T22:55:04.800Z,9.00
2023-04-27T22:57:35.360Z,8.38
2023-04-27T23:00:13.143Z,8.95
2023-04-27T23:02:44.211Z,8.82
2023-04-27T23:05:15.505Z,8.80
2023-04-27T23:07:50.502Z,8.90
2023-04-27T23:10:21.800Z,9.15
2023-04-27T23:12:55.030Z,9.35
2023-04-27T23:15:28.261Z,9.60
2023-04-27T23:17:58.842Z,8.40
2023-04-27T23:20:29.481Z,8.55
2023-04-27T23:23:00.142Z,9.13
2023-04-27T23:25:30.880Z,7.93
2023-04-27T23:28:01.558Z,8.95
2023-04-27T23:30:35.302Z,8.45
2023-04-27T23:33:06.244Z,8.23
2023-04-27T23:38:07.503Z,8.55
2023-04-27T23:40:38.078Z,8.40
2023-04-27T23:43:08.567Z,8.20
2023-04-27T23:45:42.056Z,8.18
2023-04-27T23:48:12.554Z,9.32
2023-04-27T23:50:43.120Z,8.77
2023-04-27T23:53:13.720Z,8.95
2023-04-27T23:55:44.306Z,8.60
2023-04-27T23:58:14.805Z,9.25
